Time;durP1;ratioP1;P1;durP2;ratioP2;P2;SDS_P1;SDS_P2;PMS_P1;PMS_P2;Temp;Humidity;BMP_temperature;BMP_pressure;BME280_temperature;BME280_humidity;BME280_pressure;Samples;Min_cycle;Max_cycle;Signal;HPM_P1;HPM_P2
2021/05/23 00:00:59;;;;;;;2.70;0.80;;;;;;;;;;5055674;28;20013;-77
2021/05/23 00:03:24;;;;;;;2.40;0.77;;;;;;;;;;5059022;28;20043;-77
2021/05/23 00:05:49;;;;;;;3.92;1.08;;;;;;;;;;5056545;28;20108;-77
2021/05/23 00:08:16;;;;;;;2.45;0.90;;;;;;;;;;5054837;28;20478;-77
2021/05/23 00:10:41;;;;;;;4.22;1.10;;;;;;;;;;5054998;28;20028;-77
2021/05/23 00:13:07;;;;;;;2.15;1.00;;;;;;;;;;5055299;28;20461;-77
2021/05/23 00:15:38;;;;;;;5.35;1.10;;;;;;;;;;5059023;28;20460;-77
2021/05/23 00:18:05;;;;;;;1.00;0.90;;;;;;;;;;5075572;28;20032;-77
2021/05/23 00:20:30;;;;;;;3.13;0.90;;;;;;;;;;5075510;28;20027;-77
2021/05/23 00:22:56;;;;;;;3.13;0.80;;;;;;;;;;5074749;28;20353;-77
2021/05/23 00:25:21;;;;;;;1.58;0.70;;;;;;;;;;5074006;28;20024;-77
2021/05/23 00:27:47;;;;;;;1.63;0.93;;;;;;;;;;5071368;28;20028;-77
2021/05/23 00:30:13;;;;;;;1.73;0.80;;;;;;;;;;5055107;28;20453;-77
2021/05/23 00:32:39;;;;;;;1.38;0.70;;;;;;;;;;5055152;28;20103;-77
2021/05/23 00:35:04;;;;;;;2.10;0.82;;;;;;;;;;5055169;28;20445;-77
2021/05/23 00:37:29;;;;;;;2.50;1.00;;;;;;;;;;5054889;28;20090;-77
2021/05/23 00:39:57;;;;;;;1.13;0.80;;;;;;;;;;5054603;28;20013;-77
2021/05/23 00:42:26;;;;;;;1.75;0.85;;;;;;;;;;5054101;28;20338;-77
2021/05/23 00:44:53;;;;;;;1.88;0.90;;;;;;;;;;5067642;28;20074;-77
2021/05/23 00:47:18;;;;;;;1.77;1.00;;;;;;;;;;5054678;28;20063;-77
2021/05/23 00:49:44;;;;;;;1.20;0.77;;;;;;;;;;5054944;28;20110;-77
2021/05/23 00:52:14;;;;;;;1.77;0.80;;;;;;;;;;5058630;28;20039;-77
2021/05/23 00:54:39;;;;;;;3.10;1.02;;;;;;;;;;5073938;28;20078;-77
2021/05/23 00:57:07;;;;;;;7.63;1.00;;;;;;;;;;5073223;28;20416;-77
2021/05/23 00:59:32;;;;;;;2.63;1.00;;;;;;;;;;5073658;28;20521;-77
2021/05/23 01:02:00;;;;;;;1.67;0.90;;;;;;;;;;5075247;28;20127;-78
2021/05/23 01:04:27;;;;;;;2.90;0.90;;;;;;;;;;5075539;28;20464;-77
2021/05/23 01:06:55;;;;;;;1.65;0.95;;;;;;;;;;5074250;28;20031;-77
2021/05/23 01:09:21;;;;;;;1.20;0.63;;;;;;;;;;5067013;28;20020;-77
2021/05/23 01:11:48;;;;;;;1.33;0.80;;;;;;;;;;5074230;28;20028;-77
2021/05/23 01:14:22;;;;;;;1.88;0.90;;;;;;;;;;5072810;28;20085;-78
2021/05/23 01:16:49;;;;;;;1.17;0.75;;;;;;;;;;5074306;28;20074;-78
2021/05/23 01:19:37;;;;;;;1.33;0.80;;;;;;;;;;5074339;28;20088;-77
2021/05/23 01:22:11;;;;;;;2.67;0.88;;;;;;;;;;5074523;28;20036;-77
2021/05/23 01:24:50;;;;;;;2.47;0.80;;;;;;;;;;5054070;28;20090;-77
2021/05/23 01:27:24;;;;;;;1.90;0.80;;;;;;;;;;5054062;28;20017;-77
2021/05/23 01:29:49;;;;;;;0.82;0.70;;;;;;;;;;5054322;28;20063;-77
2021/05/23 01:32:14;;;;;;;2.03;0.90;;;;;;;;;;5058940;28;20087;-78
2021/05/23 01:34:40;;;;;;;1.98;0.90;;;;;;;;;;5054094;28;20016;-77
2021/05/23 01:37:06;;;;;;;1.52;0.80;;;;;;;;;;5072576;28;20035;-77
2021/05/23 01:39:31;;;;;;;1.35;0.85;;;;;;;;;;5073567;28;20047;-77
2021/05/23 01:41:57;;;;;;;1.88;0.88;;;;;;;;;;5074045;28;20020;-77
2021/05/23 01:44:23;;;;;;;2.58;0.77;;;;;;;;;;5069902;28;20040;-77
2021/05/23 01:46:51;;;;;;;1.67;0.82;;;;;;;;;;5053971;28;20104;-77
2021/05/23 01:49:16;;;;;;;1.92;0.90;;;;;;;;;;5053887;28;20381;-77
2021/05/23 01:51:42;;;;;;;1.88;1.10;;;;;;;;;;5053820;28;20031;-77
2021/05/23 01:54:07;;;;;;;1.60;0.80;;;;;;;;;;5053476;28;20021;-75
2021/05/23 01:56:34;;;;;;;2.05;0.98;;;;;;;;;;5070621;28;20400;-76
2021/05/23 01:59:04;;;;;;;1.83;0.90;;;;;;;;;;5072457;28;20032;-76
2021/05/23 02:01:29;;;;;;;3.10;1.00;;;;;;;;;;5088006;28;20017;-76
2021/05/23 02:03:57;;;;;;;1.70;0.90;;;;;;;;;;5072488;28;20483;-77
2021/05/23 02:06:25;;;;;;;3.20;1.00;;;;;;;;;;5073776;28;20021;-76
2021/05/23 02:08:52;;;;;;;1.30;1.00;;;;;;;;;;5073005;28;20107;-77
2021/05/23 02:11:17;;;;;;;1.98;1.08;;;;;;;;;;5073399;28;20024;-77
2021/05/23 02:13:43;;;;;;;1.88;0.90;;;;;;;;;;5071862;28;20341;-77
2021/05/23 02:16:08;;;;;;;2.03;1.15;;;;;;;;;;5053623;28;20024;-78
2021/05/23 02:18:34;;;;;;;1.60;0.95;;;;;;;;;;5053504;28;20120;-77
2021/05/23 02:21:00;;;;;;;1.67;0.90;;;;;;;;;;5053661;28;20433;-77
2021/05/23 02:23:25;;;;;;;2.20;0.88;;;;;;;;;;5052907;28;20090;-78
2021/05/23 02:25:51;;;;;;;2.40;0.80;;;;;;;;;;5067940;28;20021;-77
2021/05/23 02:28:17;;;;;;;2.22;0.95;;;;;;;;;;5072339;28;20445;-78
2021/05/23 02:30:43;;;;;;;1.83;0.82;;;;;;;;;;5073508;28;20035;-77
2021/05/23 02:33:09;;;;;;;2.88;1.08;;;;;;;;;;5062989;28;20477;-77
2021/05/23 02:35:38;;;;;;;2.35;1.02;;;;;;;;;;5068252;28;20101;-77
2021/05/23 02:38:04;;;;;;;2.65;0.90;;;;;;;;;;5073119;28;20433;-77
2021/05/23 02:40:29;;;;;;;4.38;0.90;;;;;;;;;;5058719;28;20033;-77
2021/05/23 02:42:58;;;;;;;1.92;0.80;;;;;;;;;;5052179;28;20024;-77
2021/05/23 02:45:25;;;;;;;3.22;1.00;;;;;;;;;;5056895;28;20055;-77
2021/05/23 02:47:51;;;;;;;2.58;0.90;;;;;;;;;;5052058;28;20032;-77
2021/05/23 02:50:20;;;;;;;2.65;1.10;;;;;;;;;;5056962;28;20442;-78
2021/05/23 02:52:46;;;;;;;1.90;0.98;;;;;;;;;;5057304;28;20334;-77
2021/05/23 02:55:11;;;;;;;2.35;0.93;;;;;;;;;;5075979;28;20028;-78
2021/05/23 02:57:38;;;;;;;3.05;1.08;;;;;;;;;;5076800;28;20025;-77
2021/05/23 03:00:05;;;;;;;3.75;0.98;;;;;;;;;;5059191;28;20041;-77
2021/05/23 03:02:30;;;;;;;1.48;1.05;;;;;;;;;;5061972;28;20013;-76
2021/05/23 03:04:55;;;;;;;3.75;1.00;;;;;;;;;;5076923;28;20081;-76
2021/05/23 03:07:21;;;;;;;2.85;1.08;;;;;;;;;;5075990;28;20051;-76
2021/05/23 03:09:47;;;;;;;2.83;0.80;;;;;;;;;;5077034;28;20028;-76
2021/05/23 03:12:12;;;;;;;4.13;1.05;;;;;;;;;;5064388;28;20416;-76
2021/05/23 03:14:40;;;;;;;2.05;0.98;;;;;;;;;;5056524;28;20017;-76
2021/05/23 03:17:07;;;;;;;4.05;1.30;;;;;;;;;;5055354;28;20013;-77
2021/05/23 03:19:35;;;;;;;2.08;1.15;;;;;;;;;;5057651;28;20535;-76
2021/05/23 03:22:01;;;;;;;2.80;1.20;;;;;;;;;;5056167;28;20021;-76
2021/05/23 03:24:28;;;;;;;5.80;1.02;;;;;;;;;;5056715;28;20017;-76
2021/05/23 03:26:53;;;;;;;1.80;0.90;;;;;;;;;;5062249;28;20050;-76
2021/05/23 03:29:19;;;;;;;2.33;0.80;;;;;;;;;;5076505;28;20485;-76
2021/05/23 03:31:44;;;;;;;2.40;1.10;;;;;;;;;;5076091;28;20390;-76
2021/05/23 03:34:12;;;;;;;1.48;0.88;;;;;;;;;;5073634;28;20020;-76
2021/05/23 03:36:40;;;;;;;1.58;0.98;;;;;;;;;;5064760;28;20033;-76
2021/05/23 03:39:05;;;;;;;2.58;1.02;;;;;;;;;;5075892;28;20613;-77
2021/05/23 03:41:30;;;;;;;4.50;1.40;;;;;;;;;;5075371;28;20023;-77
2021/05/23 03:43:56;;;;;;;2.97;1.00;;;;;;;;;;5075252;28;20024;-76
2021/05/23 03:46:23;;;;;;;3.38;1.40;;;;;;;;;;5074934;28;20051;-76
2021/05/23 03:48:51;;;;;;;1.55;0.88;;;;;;;;;;5076084;28;20063;-76
2021/05/23 03:51:16;;;;;;;2.47;1.00;;;;;;;;;;5075907;28;20361;-76
2021/05/23 03:53:41;;;;;;;2.63;1.30;;;;;;;;;;5076435;28;20035;-76
2021/05/23 03:56:06;;;;;;;3.72;1.05;;;;;;;;;;5075546;28;20032;-76
2021/05/23 03:58:32;;;;;;;1.92;1.05;;;;;;;;;;5074607;28;20455;-75
2021/05/23 04:00:57;;;;;;;1.83;0.98;;;;;;;;;;5074389;28;20456;-76
2021/05/23 04:03:27;;;;;;;4.85;1.17;;;;;;;;;;5074243;28;20036;-76
2021/05/23 04:05:53;;;;;;;3.97;1.08;;;;;;;;;;5056413;28;20017;-76
2021/05/23 04:08:20;;;;;;;3.28;1.23;;;;;;;;;;5072085;28;20043;-76
2021/05/23 04:13:39;;;;;;;3.42;0.93;;;;;;;;;;5073659;28;20381;-75
2021/05/23 04:16:04;;;;;;;1.85;0.88;;;;;;;;;;5073216;28;20186;-75
2021/05/23 04:18:29;;;;;;;1.58;0.80;;;;;;;;;;5064261;28;20496;-75
2021/05/23 04:20:57;;;;;;;3.15;1.23;;;;;;;;;;5074913;28;20453;-74
2021/05/23 04:23:23;;;;;;;1.73;1.00;;;;;;;;;;5075313;28;20041;-75
2021/05/23 04:25:49;;;;;;;2.28;1.10;;;;;;;;;;5075698;28;20403;-75
2021/05/23 04:28:14;;;;;;;2.72;1.00;;;;;;;;;;5056635;28;20033;-76
2021/05/23 04:30:39;;;;;;;1.35;0.90;;;;;;;;;;5055341;28;20079;-75
2021/05/23 04:33:06;;;;;;;2.08;1.10;;;;;;;;;;5074617;28;20035;-75
2021/05/23 04:35:32;;;;;;;2.22;1.25;;;;;;;;;;5074250;28;20028;-75
2021/05/23 04:38:00;;;;;;;1.55;0.85;;;;;;;;;;5074765;28;20033;-75
2021/05/23 04:40:25;;;;;;;2.03;1.00;;;;;;;;;;5073894;28;20033;-75
2021/05/23 04:42:51;;;;;;;3.63;1.15;;;;;;;;;;5075029;28;20035;-75
2021/05/23 04:45:16;;;;;;;3.92;1.15;;;;;;;;;;5074803;28;20123;-76
2021/05/23 04:47:42;;;;;;;1.65;1.05;;;;;;;;;;5072941;28;20044;-76
2021/05/23 04:50:08;;;;;;;3.40;1.20;;;;;;;;;;5074716;28;20040;-74
2021/05/23 04:52:35;;;;;;;2.42;1.08;;;;;;;;;;5074609;28;20012;-76
2021/05/23 04:55:04;;;;;;;1.98;0.93;;;;;;;;;;5074940;28;20028;-76
2021/05/23 04:57:29;;;;;;;2.40;1.02;;;;;;;;;;5074729;28;20017;-77
2021/05/23 04:59:54;;;;;;;3.95;1.30;;;;;;;;;;5074106;28;20497;-77
2021/05/23 05:02:20;;;;;;;4.28;1.20;;;;;;;;;;5069800;28;20044;-77
2021/05/23 05:04:45;;;;;;;3.20;1.27;;;;;;;;;;5053979;28;20047;-77
2021/05/23 05:07:11;;;;;;;2.17;0.95;;;;;;;;;;5054150;28;20028;-76
2021/05/23 05:09:36;;;;;;;2.17;1.20;;;;;;;;;;5054322;28;20025;-77
2021/05/23 05:12:01;;;;;;;3.22;1.00;;;;;;;;;;5054254;28;20025;-77
2021/05/23 05:14:26;;;;;;;4.60;1.10;;;;;;;;;;5078831;28;20339;-77
2021/05/23 05:16:52;;;;;;;2.58;1.00;;;;;;;;;;5055331;28;20410;-77
2021/05/23 05:19:17;;;;;;;3.30;1.20;;;;;;;;;;5074034;28;20369;-76
2021/05/23 05:21:42;;;;;;;1.92;0.90;;;;;;;;;;5077036;28;20464;-75
2021/05/23 05:24:08;;;;;;;4.82;1.20;;;;;;;;;;5067004;28;20038;-75
2021/05/23 05:26:34;;;;;;;1.92;1.00;;;;;;;;;;5070720;28;20020;-74
2021/05/23 05:28:59;;;;;;;2.97;1.20;;;;;;;;;;5084342;28;20387;-75
2021/05/23 05:31:26;;;;;;;2.08;1.00;;;;;;;;;;5073247;28;20452;-74
2021/05/23 05:33:52;;;;;;;4.88;1.25;;;;;;;;;;5074042;28;20016;-75
2021/05/23 05:36:17;;;;;;;1.77;0.95;;;;;;;;;;5073989;28;20407;-75
2021/05/23 05:38:42;;;;;;;2.75;1.20;;;;;;;;;;5071123;28;20043;-75
2021/05/23 05:41:08;;;;;;;3.28;1.27;;;;;;;;;;5072526;28;20031;-74
2021/05/23 05:43:33;;;;;;;3.05;1.10;;;;;;;;;;5074747;28;20017;-75
2021/05/23 05:45:58;;;;;;;2.92;1.10;;;;;;;;;;5073898;28;20369;-74
2021/05/23 05:48:24;;;;;;;3.08;1.20;;;;;;;;;;5072977;28;20063;-76
2021/05/23 05:50:49;;;;;;;2.42;0.90;;;;;;;;;;5076215;28;20031;-75
2021/05/23 05:53:16;;;;;;;2.17;0.93;;;;;;;;;;5071079;28;20029;-76
2021/05/23 05:55:41;;;;;;;4.03;1.30;;;;;;;;;;5063660;28;20021;-75
2021/05/23 05:58:06;;;;;;;2.50;1.10;;;;;;;;;;5069779;28;20041;-73
2021/05/23 06:00:32;;;;;;;2.15;1.15;;;;;;;;;;5087271;28;20035;-74
2021/05/23 06:03:01;;;;;;;4.18;1.38;;;;;;;;;;5070950;28;20016;-73
2021/05/23 06:05:26;;;;;;;2.67;1.33;;;;;;;;;;5069393;28;20171;-73
2021/05/23 06:07:51;;;;;;;3.25;1.10;;;;;;;;;;5072110;28;20333;-75
2021/05/23 06:10:17;;;;;;;4.05;1.45;;;;;;;;;;5072321;28;20378;-75
2021/05/23 06:12:42;;;;;;;3.92;1.40;;;;;;;;;;5067879;28;20465;-73
2021/05/23 06:15:08;;;;;;;3.78;1.45;;;;;;;;;;5071721;28;20030;-73
2021/05/23 06:17:36;;;;;;;3.40;1.02;;;;;;;;;;5071184;28;20345;-74
2021/05/23 06:20:01;;;;;;;6.40;1.63;;;;;;;;;;5070110;28;20012;-74
2021/05/23 06:22:26;;;;;;;3.85;1.20;;;;;;;;;;5071025;28;20037;-74
2021/05/23 06:24:53;;;;;;;3.70;1.30;;;;;;;;;;5069562;28;20077;-74
2021/05/23 06:27:18;;;;;;;3.30;1.30;;;;;;;;;;5076047;28;20036;-74
2021/05/23 06:29:45;;;;;;;7.85;1.88;;;;;;;;;;5081674;28;20025;-74
2021/05/23 06:32:11;;;;;;;4.25;1.20;;;;;;;;;;5072349;28;20047;-75
2021/05/23 06:34:36;;;;;;;3.15;1.30;;;;;;;;;;5069965;28;20440;-74
2021/05/23 06:37:02;;;;;;;4.60;1.27;;;;;;;;;;5053156;28;20032;-74
2021/05/23 06:39:27;;;;;;;6.90;1.40;;;;;;;;;;5066135;28;20035;-75
2021/05/23 06:41:52;;;;;;;5.32;1.38;;;;;;;;;;5062187;28;20100;-76
2021/05/23 06:44:18;;;;;;;3.42;1.08;;;;;;;;;;5052405;28;20037;-76
2021/05/23 06:46:44;;;;;;;3.95;1.13;;;;;;;;;;5068463;28;20024;-76
2021/05/23 06:49:09;;;;;;;4.20;1.38;;;;;;;;;;5071499;28;20024;-75
2021/05/23 06:51:34;;;;;;;4.72;1.23;;;;;;;;;;5072046;28;20024;-75
2021/05/23 06:53:59;;;;;;;5.63;1.40;;;;;;;;;;5071809;28;20446;-75
2021/05/23 06:56:25;;;;;;;4.70;1.50;;;;;;;;;;5071292;28;20515;-77
2021/05/23 06:58:50;;;;;;;4.95;1.48;;;;;;;;;;5071490;28;20582;-76
2021/05/23 07:01:15;;;;;;;4.53;1.33;;;;;;;;;;5072501;28;20021;-76
2021/05/23 07:03:40;;;;;;;4.55;1.70;;;;;;;;;;5068603;28;20017;-74
2021/05/23 07:06:06;;;;;;;3.70;1.40;;;;;;;;;;5063422;28;20036;-75
2021/05/23 07:08:31;;;;;;;3.60;1.13;;;;;;;;;;5072262;28;20017;-76
2021/05/23 07:10:56;;;;;;;3.25;1.20;;;;;;;;;;5075495;28;20816;-74
2021/05/23 07:13:23;;;;;;;9.55;1.63;;;;;;;;;;5070646;28;20036;-76
2021/05/23 07:15:49;;;;;;;5.93;1.20;;;;;;;;;;5070961;28;20025;-76
2021/05/23 07:18:17;;;;;;;5.78;1.23;;;;;;;;;;5071279;28;20024;-76
2021/05/23 07:20:42;;;;;;;5.13;1.50;;;;;;;;;;5071541;28;20097;-76
2021/05/23 07:23:07;;;;;;;5.93;1.70;;;;;;;;;;5072707;28;20036;-76
2021/05/23 07:25:33;;;;;;;3.38;1.13;;;;;;;;;;5071422;28;20017;-76
2021/05/23 07:27:58;;;;;;;5.25;1.30;;;;;;;;;;5071191;28;20024;-76
2021/05/23 07:30:24;;;;;;;3.78;1.08;;;;;;;;;;5070263;28;20024;-76
2021/05/23 07:32:49;;;;;;;6.07;1.55;;;;;;;;;;5070977;28;20035;-77
2021/05/23 07:35:17;;;;;;;3.47;1.38;;;;;;;;;;5073501;28;20472;-77
2021/05/23 07:37:42;;;;;;;3.13;1.30;;;;;;;;;;5073908;28;20096;-76
2021/05/23 07:40:08;;;;;;;5.07;1.60;;;;;;;;;;5073613;28;20406;-76
2021/05/23 07:42:36;;;;;;;7.72;1.38;;;;;;;;;;5074762;28;20009;-76
2021/05/23 07:45:02;;;;;;;2.40;1.20;;;;;;;;;;5074220;28;20047;-76
2021/05/23 07:47:30;;;;;;;5.78;1.20;;;;;;;;;;5068678;28;20357;-76
2021/05/23 07:49:55;;;;;;;2.42;1.02;;;;;;;;;;5074817;28;20028;-77
2021/05/23 07:52:20;;;;;;;3.15;1.08;;;;;;;;;;5074423;28;20042;-78
2021/05/23 07:54:46;;;;;;;5.03;0.90;;;;;;;;;;5074356;28;20032;-79
2021/05/23 07:57:13;;;;;;;5.15;1.30;;;;;;;;;;5074697;28;20028;-78
2021/05/23 07:59:38;;;;;;;2.95;1.30;;;;;;;;;;5077593;28;20031;-78
2021/05/23 08:02:04;;;;;;;5.10;1.10;;;;;;;;;;5074373;28;20013;-76
2021/05/23 08:04:29;;;;;;;4.55;1.17;;;;;;;;;;5073311;28;20085;-75
2021/05/23 08:06:54;;;;;;;1.98;1.17;;;;;;;;;;5074475;28;20101;-81
2021/05/23 08:09:20;;;;;;;3.70;1.08;;;;;;;;;;5074512;28;20103;-79
2021/05/23 08:11:46;;;;;;;3.88;1.33;;;;;;;;;;5073715;28;20025;-79
2021/05/23 08:14:11;;;;;;;3.38;1.27;;;;;;;;;;5068386;28;20017;-77
2021/05/23 08:16:37;;;;;;;5.78;1.30;;;;;;;;;;5072479;28;20031;-78
2021/05/23 08:19:02;;;;;;;3.75;1.08;;;;;;;;;;5085341;28;20103;-77
2021/05/23 08:21:28;;;;;;;3.25;1.08;;;;;;;;;;5072126;28;20024;-78
2021/05/23 08:23:53;;;;;;;4.38;1.83;;;;;;;;;;5067077;28;20071;-77
2021/05/23 08:26:18;;;;;;;2.97;1.10;;;;;;;;;;5065285;28;20032;-79
2021/05/23 08:28:43;;;;;;;2.88;1.10;;;;;;;;;;5064997;28;20511;-77
2021/05/23 08:31:09;;;;;;;5.40;1.33;;;;;;;;;;5063018;28;20021;-79
2021/05/23 08:33:34;;;;;;;2.80;1.08;;;;;;;;;;5061797;28;20016;-81
2021/05/23 08:36:00;;;;;;;4.18;1.10;;;;;;;;;;5056576;28;20402;-81
2021/05/23 08:38:25;;;;;;;4.57;1.33;;;;;;;;;;5070521;28;20025;-81
2021/05/23 08:40:51;;;;;;;5.50;1.40;;;;;;;;;;5064914;28;20024;-80
2021/05/23 08:43:17;;;;;;;2.70;1.00;;;;;;;;;;5063599;28;20442;-81
2021/05/23 08:45:42;;;;;;;3.95;0.93;;;;;;;;;;5067822;28;20086;-82
2021/05/23 08:48:08;;;;;;;3.55;1.00;;;;;;;;;;5069713;28;20048;-83
2021/05/23 08:50:36;;;;;;;6.00;1.10;;;;;;;;;;5071547;28;20131;-79
2021/05/23 08:53:02;;;;;;;3.15;1.10;;;;;;;;;;5071272;28;20017;-83
2021/05/23 08:55:29;;;;;;;4.72;1.13;;;;;;;;;;5072833;28;20082;-81
2021/05/23 08:57:58;;;;;;;4.00;1.05;;;;;;;;;;5072969;28;20021;-82
2021/05/23 09:00:23;;;;;;;1.90;0.82;;;;;;;;;;5070238;28;20020;-83
2021/05/23 09:02:50;;;;;;;4.80;1.17;;;;;;;;;;5069650;28;20020;-80
2021/05/23 09:05:24;;;;;;;2.35;1.08;;;;;;;;;;5072700;28;20024;-80
2021/05/23 09:07:49;;;;;;;3.03;1.02;;;;;;;;;;5071894;28;20020;-79
2021/05/23 09:10:21;;;;;;;3.33;1.10;;;;;;;;;;5068782;28;20047;-80
2021/05/23 09:12:48;;;;;;;2.92;0.93;;;;;;;;;;5066799;28;20286;-80
2021/05/23 09:15:13;;;;;;;2.70;1.13;;;;;;;;;;5071533;28;20036;-78
2021/05/23 09:17:41;;;;;;;3.03;1.15;;;;;;;;;;5063847;28;20025;-81
2021/05/23 09:20:08;;;;;;;2.38;1.10;;;;;;;;;;5070105;28;20336;-81
2021/05/23 09:22:37;;;;;;;2.20;1.02;;;;;;;;;;5069412;28;20332;-80
2021/05/23 09:25:03;;;;;;;3.47;1.20;;;;;;;;;;5069348;28;20020;-78
2021/05/23 09:27:30;;;;;;;1.77;0.90;;;;;;;;;;5070652;28;20012;-80
2021/05/23 09:30:06;;;;;;;2.00;1.10;;;;;;;;;;5064516;28;20085;-79
2021/05/23 09:32:37;;;;;;;3.30;1.40;;;;;;;;;;5068542;28;20021;-80
2021/05/23 09:35:04;;;;;;;3.03;1.67;;;;;;;;;;5071167;28;20052;-80
2021/05/23 09:37:31;;;;;;;5.07;1.30;;;;;;;;;;5070102;28;20009;-81
2021/05/23 09:39:56;;;;;;;4.22;1.20;;;;;;;;;;5070712;28;20016;-81
2021/05/23 09:42:23;;;;;;;2.50;1.00;;;;;;;;;;5070057;28;20020;-80
2021/05/23 09:44:49;;;;;;;3.28;1.20;;;;;;;;;;5067524;28;20355;-78
2021/05/23 09:47:16;;;;;;;3.15;1.25;;;;;;;;;;5072475;28;20089;-82
2021/05/23 09:49:50;;;;;;;2.03;0.95;;;;;;;;;;5070516;28;20023;-81
2021/05/23 09:52:19;;;;;;;2.85;1.13;;;;;;;;;;5069500;28;20024;-80
2021/05/23 09:54:47;;;;;;;2.88;1.00;;;;;;;;;;5069042;28;20016;-80
2021/05/23 09:57:14;;;;;;;2.70;1.20;;;;;;;;;;5069258;28;20427;-81
2021/05/23 09:59:40;;;;;;;3.67;1.23;;;;;;;;;;5061999;28;20352;-81
2021/05/23 10:02:09;;;;;;;2.65;1.10;;;;;;;;;;5065068;28;20017;-80
2021/05/23 10:04:35;;;;;;;2.90;1.10;;;;;;;;;;5068010;28;20422;-79
2021/05/23 10:07:08;;;;;;;3.58;1.13;;;;;;;;;;5069947;28;20169;-79
2021/05/23 10:09:33;;;;;;;3.70;1.00;;;;;;;;;;5067282;28;20023;-81
2021/05/23 10:11:59;;;;;;;5.18;1.15;;;;;;;;;;5073171;28;20362;-80
2021/05/23 10:14:25;;;;;;;2.22;1.20;;;;;;;;;;5062752;28;20055;-79
2021/05/23 10:16:51;;;;;;;2.05;0.98;;;;;;;;;;5072084;28;20039;-80
2021/05/23 10:19:18;;;;;;;3.20;1.10;;;;;;;;;;5066513;28;20028;-81
2021/05/23 10:21:46;;;;;;;2.35;1.00;;;;;;;;;;5063976;28;20021;-81
2021/05/23 10:24:12;;;;;;;3.30;1.30;;;;;;;;;;5069436;28;20032;-79
2021/05/23 10:26:37;;;;;;;2.55;1.20;;;;;;;;;;5068515;28;20012;-80
2021/05/23 10:29:05;;;;;;;2.70;1.10;;;;;;;;;;5076566;28;20520;-81
2021/05/23 10:31:34;;;;;;;2.72;1.15;;;;;;;;;;5077534;28;20567;-81
2021/05/23 10:34:06;;;;;;;2.85;1.23;;;;;;;;;;5088291;28;20023;-80
2021/05/23 10:36:37;;;;;;;2.97;1.20;;;;;;;;;;5059531;28;20029;-80
2021/05/23 10:39:05;;;;;;;3.13;1.13;;;;;;;;;;5088816;28;20042;-78
2021/05/23 10:41:30;;;;;;;2.30;1.00;;;;;;;;;;5069082;28;20035;-80
2021/05/23 10:43:59;;;;;;;2.83;1.38;;;;;;;;;;5071658;28;20093;-80
2021/05/23 10:46:24;;;;;;;2.28;1.17;;;;;;;;;;5072449;28;20109;-79
2021/05/23 10:48:54;;;;;;;2.88;1.23;;;;;;;;;;5071722;28;20430;-79
2021/05/23 10:51:22;;;;;;;6.65;1.30;;;;;;;;;;5073421;28;20464;-80
2021/05/23 10:53:47;;;;;;;2.63;1.20;;;;;;;;;;5073121;28;20033;-83
2021/05/23 10:56:23;;;;;;;4.25;1.30;;;;;;;;;;5073229;28;20367;-81
2021/05/23 10:59:01;;;;;;;2.25;1.00;;;;;;;;;;5067754;28;20610;-79
2021/05/23 11:01:46;;;;;;;3.15;1.40;;;;;;;;;;5064623;28;20012;-80
2021/05/23 11:04:19;;;;;;;3.13;1.20;;;;;;;;;;5066752;28;20056;-79
2021/05/23 11:06:50;;;;;;;3.90;1.27;;;;;;;;;;5064964;28;20100;-81
2021/05/23 11:09:28;;;;;;;2.10;1.05;;;;;;;;;;5064219;28;20028;-81
2021/05/23 11:12:05;;;;;;;1.88;1.00;;;;;;;;;;5067225;28;20093;-81
2021/05/23 11:14:32;;;;;;;2.55;0.90;;;;;;;;;;5072549;28;20017;-80
2021/05/23 11:16:58;;;;;;;2.05;1.00;;;;;;;;;;5071549;28;20017;-81
2021/05/23 11:19:30;;;;;;;1.58;0.95;;;;;;;;;;5071361;28;20035;-80
2021/05/23 11:21:55;;;;;;;2.22;0.90;;;;;;;;;;5069068;28;20103;-79
2021/05/23 11:24:31;;;;;;;3.05;1.27;;;;;;;;;;5069384;28;20048;-78
2021/05/23 11:26:57;;;;;;;2.45;1.00;;;;;;;;;;5065944;28;20040;-77
2021/05/23 11:29:25;;;;;;;2.75;1.13;;;;;;;;;;5069367;28;20453;-78
2021/05/23 11:31:53;;;;;;;2.03;1.10;;;;;;;;;;5072933;28;20036;-78
2021/05/23 11:34:19;;;;;;;3.20;1.00;;;;;;;;;;5073674;28;20475;-79
2021/05/23 11:36:44;;;;;;;2.90;0.90;;;;;;;;;;5071795;28;20040;-79
2021/05/23 11:39:13;;;;;;;4.55;0.82;;;;;;;;;;5068011;28;20060;-77
2021/05/23 11:41:42;;;;;;;2.35;1.00;;;;;;;;;;5070043;28;20021;-77
2021/05/23 11:44:13;;;;;;;2.08;0.98;;;;;;;;;;5064123;28;20032;-77
2021/05/23 11:46:39;;;;;;;2.72;1.00;;;;;;;;;;5067365;28;20034;-77
2021/05/23 11:49:08;;;;;;;4.10;1.85;;;;;;;;;;5072416;28;20073;-77
2021/05/23 11:51:34;;;;;;;2.92;1.67;;;;;;;;;;5068804;28;20029;-76
2021/05/23 11:54:03;;;;;;;4.72;1.75;;;;;;;;;;5059333;28;20111;-77
2021/05/23 11:56:29;;;;;;;1.70;1.02;;;;;;;;;;5067296;28;20043;-77
2021/05/23 11:58:59;;;;;;;3.50;1.02;;;;;;;;;;5069813;28;20024;-77
2021/05/23 12:01:30;;;;;;;1.25;0.70;;;;;;;;;;5062484;28;20004;-78
2021/05/23 12:04:01;;;;;;;1.92;0.80;;;;;;;;;;5071663;28;20025;-74
2021/05/23 12:06:29;;;;;;;1.92;1.08;;;;;;;;;;5064493;28;20470;-76
2021/05/23 12:09:12;;;;;;;1.90;0.80;;;;;;;;;;5063048;28;20017;-77
2021/05/23 12:11:39;;;;;;;2.70;0.93;;;;;;;;;;5061178;28;20039;-77
2021/05/23 12:14:04;;;;;;;1.65;0.70;;;;;;;;;;5067250;28;20017;-78
2021/05/23 12:16:30;;;;;;;2.35;1.10;;;;;;;;;;5067205;28;20403;-77
2021/05/23 12:18:56;;;;;;;2.20;0.90;;;;;;;;;;5060933;28;20021;-76
2021/05/23 12:21:24;;;;;;;2.38;1.10;;;;;;;;;;5069178;28;20255;-79
2021/05/23 12:23:53;;;;;;;2.15;0.80;;;;;;;;;;5056716;28;20052;-77
2021/05/23 12:26:20;;;;;;;1.42;0.90;;;;;;;;;;5072741;28;20020;-79
2021/05/23 12:28:47;;;;;;;1.40;0.90;;;;;;;;;;5074189;28;20032;-79
2021/05/23 12:31:12;;;;;;;2.58;1.08;;;;;;;;;;5065277;28;20024;-79
2021/05/23 12:33:38;;;;;;;1.95;1.00;;;;;;;;;;5060740;28;20028;-79
2021/05/23 12:36:13;;;;;;;2.58;0.80;;;;;;;;;;5063577;28;20021;-78
2021/05/23 12:38:41;;;;;;;2.65;0.80;;;;;;;;;;5072078;28;20032;-78
2021/05/23 12:41:12;;;;;;;1.75;0.70;;;;;;;;;;5068729;28;20047;-78
2021/05/23 12:43:39;;;;;;;2.05;0.80;;;;;;;;;;5065265;28;20040;-78
2021/05/23 12:46:06;;;;;;;2.95;0.98;;;;;;;;;;5061838;28;20075;-81
2021/05/23 12:48:40;;;;;;;1.08;0.65;;;;;;;;;;5074270;28;20123;-80
2021/05/23 12:51:08;;;;;;;2.28;1.10;;;;;;;;;;5067648;28;20441;-79
2021/05/23 12:53:34;;;;;;;3.35;1.10;;;;;;;;;;5065374;28;20020;-79
2021/05/23 12:56:15;;;;;;;2.75;1.00;;;;;;;;;;5063881;28;20135;-80
2021/05/23 12:58:44;;;;;;;1.55;0.77;;;;;;;;;;5068911;28;20024;-78
2021/05/23 13:01:13;;;;;;;2.00;0.90;;;;;;;;;;5074056;28;20469;-80
2021/05/23 13:03:39;;;;;;;1.25;0.70;;;;;;;;;;5068365;28;20062;-78
2021/05/23 13:06:04;;;;;;;4.75;0.90;;;;;;;;;;5073432;28;20137;-77
2021/05/23 13:08:30;;;;;;;0.88;0.70;;;;;;;;;;5054299;28;20035;-78
2021/05/23 13:10:59;;;;;;;3.00;0.90;;;;;;;;;;5054097;28;20092;-80
2021/05/23 13:13:24;;;;;;;1.90;0.98;;;;;;;;;;5058534;28;20008;-80
2021/05/23 13:15:52;;;;;;;2.67;1.13;;;;;;;;;;5074205;28;20617;-76
2021/05/23 13:18:18;;;;;;;3.38;0.90;;;;;;;;;;5073858;28;20441;-77
2021/05/23 13:20:43;;;;;;;2.50;0.90;;;;;;;;;;5073939;28;20103;-76
2021/05/23 13:23:09;;;;;;;2.37;0.90;;;;;;;;;;5062273;28;20108;-76
2021/05/23 13:25:34;;;;;;;0.90;0.65;;;;;;;;;;5062350;28;20278;-78
2021/05/23 13:27:59;;;;;;;2.15;0.95;;;;;;;;;;5073433;28;20119;-81
2021/05/23 13:30:28;;;;;;;1.13;0.60;;;;;;;;;;5073807;28;20028;-80
2021/05/23 13:32:54;;;;;;;2.33;0.90;;;;;;;;;;5072828;28;20040;-77
2021/05/23 13:35:19;;;;;;;0.77;0.52;;;;;;;;;;5070303;28;20434;-77
2021/05/23 13:37:45;;;;;;;2.78;0.90;;;;;;;;;;5075661;28;20103;-77
2021/05/23 13:40:10;;;;;;;1.88;0.85;;;;;;;;;;5073493;28;20028;-78
2021/05/23 13:42:35;;;;;;;6.18;0.82;;;;;;;;;;5073398;28;20017;-78
2021/05/23 13:45:01;;;;;;;3.40;1.23;;;;;;;;;;5064968;28;20094;-78
2021/05/23 13:47:26;;;;;;;2.05;0.82;;;;;;;;;;5067305;28;20070;-78
2021/05/23 13:49:54;;;;;;;3.55;1.00;;;;;;;;;;5065106;28;20128;-78
2021/05/23 13:52:19;;;;;;;2.38;1.02;;;;;;;;;;5071646;28;20020;-77
2021/05/23 13:54:45;;;;;;;2.05;1.05;;;;;;;;;;5072416;28;20476;-78
2021/05/23 13:57:12;;;;;;;2.72;1.02;;;;;;;;;;5068947;28;20025;-78
2021/05/23 13:59:43;;;;;;;1.95;0.95;;;;;;;;;;5065698;28;20107;-77
2021/05/23 14:02:09;;;;;;;1.33;0.80;;;;;;;;;;5071013;28;20025;-77
2021/05/23 14:04:34;;;;;;;2.40;0.90;;;;;;;;;;5072820;28;20044;-78
2021/05/23 14:06:59;;;;;;;3.27;0.90;;;;;;;;;;5074847;28;20023;-78
2021/05/23 14:09:25;;;;;;;1.52;0.90;;;;;;;;;;5072038;28;20283;-78
2021/05/23 14:11:50;;;;;;;1.30;0.70;;;;;;;;;;5065194;28;20554;-78
2021/05/23 14:14:17;;;;;;;1.90;0.70;;;;;;;;;;5069863;28;20363;-77
2021/05/23 14:16:43;;;;;;;1.75;0.70;;;;;;;;;;5064579;28;20033;-78
2021/05/23 14:19:11;;;;;;;1.70;0.83;;;;;;;;;;5067627;28;20032;-80
2021/05/23 14:21:39;;;;;;;2.45;1.02;;;;;;;;;;5080621;28;20254;-79
2021/05/23 14:24:07;;;;;;;1.15;0.70;;;;;;;;;;5072794;28;20031;-79
2021/05/23 14:26:32;;;;;;;2.67;1.10;;;;;;;;;;5086092;28;20102;-80
2021/05/23 14:28:58;;;;;;;2.75;1.00;;;;;;;;;;5076229;28;20095;-80
2021/05/23 14:31:28;;;;;;;3.70;0.90;;;;;;;;;;5085187;28;20027;-78
2021/05/23 14:33:53;;;;;;;1.63;0.70;;;;;;;;;;5083954;28;20020;-79
2021/05/23 14:36:19;;;;;;;1.38;0.73;;;;;;;;;;5077524;28;20094;-78
2021/05/23 14:38:44;;;;;;;3.50;1.00;;;;;;;;;;5060128;28;20021;-79
2021/05/23 14:41:10;;;;;;;1.63;0.80;;;;;;;;;;5093235;28;20024;-80
2021/05/23 14:43:39;;;;;;;3.00;1.15;;;;;;;;;;5084932;28;20017;-79